Time;durP1;ratioP1;P1;durP2;ratioP2;P2;SDS_P1;SDS_P2;PMS_P1;PMS_P2;Temp;Humidity;BMP_temperature;BMP_pressure;BME280_temperature;BME280_humidity;BME280_pressure;Samples;Min_cycle;Max_cycle;Signal;HPM_P1;HPM_P2
2020/12/21 00:00:09;;;;;;;37.45;22.70;;;6.40;99.90;;;;;;5011147;28;20104;-68
2020/12/21 00:02:40;;;;;;;33.72;21.45;;;6.40;99.90;;;;;;5022150;28;20403;-68
2020/12/21 00:05:07;;;;;;;29.10;21.05;;;6.40;99.90;;;;;;5027221;28;20053;-68
2020/12/21 00:07:34;;;;;;;35.85;23.27;;;6.40;99.90;;;;;;5027567;28;20061;-73
2020/12/21 00:10:00;;;;;;;33.50;23.75;;;6.40;99.90;;;;;;5034076;28;20049;-68
2020/12/21 00:12:28;;;;;;;33.40;21.77;;;6.40;99.90;;;;;;5027896;28;20467;-67
2020/12/21 00:14:55;;;;;;;38.53;24.15;;;6.40;99.90;;;;;;5030124;28;20045;-76
2020/12/21 00:17:21;;;;;;;37.55;22.63;;;6.40;99.90;;;;;;5026753;28;20124;-70
2020/12/21 00:19:48;;;;;;;40.65;23.48;;;6.30;99.90;;;;;;5028545;28;20057;-72
2020/12/21 00:22:17;;;;;;;34.70;23.05;;;6.30;99.90;;;;;;5026835;28;20275;-69
2020/12/21 00:24:44;;;;;;;37.80;22.05;;;6.30;99.90;;;;;;5023012;28;20468;-73
2020/12/21 00:27:11;;;;;;;33.70;23.20;;;6.30;99.90;;;;;;5026439;28;20099;-71
2020/12/21 00:29:37;;;;;;;39.90;24.95;;;6.30;99.90;;;;;;5033288;28;20140;-70
2020/12/21 00:32:04;;;;;;;35.72;22.52;;;6.30;99.90;;;;;;5026778;28;20049;-68
2020/12/21 00:34:30;;;;;;;33.70;26.40;;;6.30;99.90;;;;;;5030192;28;20174;-79
2020/12/21 00:36:57;;;;;;;40.42;25.13;;;6.30;99.90;;;;;;5025755;28;20500;-79
2020/12/21 00:39:23;;;;;;;31.98;23.58;;;6.30;99.90;;;;;;5034433;28;20099;-70
2020/12/21 00:41:50;;;;;;;38.90;23.85;;;6.30;99.90;;;;;;5026507;28;20124;-67
2020/12/21 00:44:16;;;;;;;42.60;25.27;;;6.30;99.90;;;;;;5027633;28;21349;-70
2020/12/21 00:46:44;;;;;;;47.20;27.38;;;6.20;99.90;;;;;;5029734;28;20056;-73
2020/12/21 00:49:10;;;;;;;35.22;24.20;;;6.20;99.90;;;;;;5023465;28;20361;-68
2020/12/21 00:51:37;;;;;;;37.97;24.63;;;6.20;99.90;;;;;;5026846;28;20045;-75
2020/12/21 00:54:04;;;;;;;42.35;28.58;;;6.20;99.90;;;;;;5033825;28;20146;-69
2020/12/21 00:56:31;;;;;;;36.33;24.23;;;6.20;99.90;;;;;;5029031;28;20045;-77
2020/12/21 00:58:57;;;;;;;43.58;24.10;;;6.20;99.90;;;;;;5034212;28;20045;-70
2020/12/21 01:01:28;;;;;;;39.75;25.63;;;6.20;99.90;;;;;;5030282;28;20346;-69
2020/12/21 01:03:59;;;;;;;41.17;25.92;;;6.20;99.90;;;;;;5023981;28;20041;-71
2020/12/21 01:06:26;;;;;;;37.90;23.63;;;6.20;99.90;;;;;;5036013;28;20040;-73
2020/12/21 01:08:58;;;;;;;38.63;24.60;;;6.20;99.90;;;;;;5022912;28;20063;-69
2020/12/21 01:11:28;;;;;;;37.55;24.38;;;6.20;99.90;;;;;;5029754;28;20099;-69
2020/12/21 01:13:56;;;;;;;;;;;6.20;99.90;;;;;;5035407;28;20060;-73
2020/12/21 01:16:22;;;;;;;44.35;26.95;;;6.20;99.90;;;;;;5029038;28;19970;-67
2020/12/21 01:18:49;;;;;;;41.78;26.63;;;6.20;99.90;;;;;;5030031;28;20041;-72
2020/12/21 01:21:27;;;;;;;48.35;25.58;;;6.10;99.90;;;;;;5028235;28;20052;-74
2020/12/21 01:23:55;;;;;;;39.90;26.27;;;6.10;99.90;;;;;;5023706;28;20048;-70
2020/12/21 01:26:22;;;;;;;45.63;26.08;;;6.10;99.90;;;;;;5028531;28;20046;-67
2020/12/21 01:28:49;;;;;;;41.13;25.85;;;6.10;99.90;;;;;;5027378;28;20415;-73
2020/12/21 01:31:17;;;;;;;35.75;27.17;;;6.10;99.90;;;;;;5021395;28;20045;-73
2020/12/21 01:33:45;;;;;;;45.15;26.60;;;6.10;99.90;;;;;;5025578;28;20509;-70
2020/12/21 01:36:12;;;;;;;38.75;25.23;;;6.10;99.90;;;;;;5023771;28;20505;-67
2020/12/21 01:38:39;;;;;;;41.67;27.27;;;6.10;99.90;;;;;;5029803;28;20052;-73
2020/12/21 01:41:05;;;;;;;49.75;27.30;;;6.10;99.90;;;;;;5025150;28;20053;-70
2020/12/21 01:43:32;;;;;;;44.60;26.05;;;6.10;99.90;;;;;;5027248;28;20126;-69
2020/12/21 01:46:08;;;;;;;47.28;27.35;;;6.10;99.90;;;;;;5033041;28;20115;-72
2020/12/21 01:48:36;;;;;;;40.33;25.40;;;6.10;99.90;;;;;;5023978;28;20046;-70
2020/12/21 01:51:05;;;;;;;48.15;27.50;;;6.10;99.90;;;;;;5030659;28;20050;-70
2020/12/21 01:53:36;;;;;;;49.17;26.13;;;6.10;99.90;;;;;;5033475;28;20072;-70
2020/12/21 01:56:06;;;;;;;41.47;26.52;;;6.10;99.90;;;;;;5026778;28;20049;-69
2020/12/21 01:58:33;;;;;;;40.80;25.67;;;6.00;99.90;;;;;;5033807;28;20630;-70
2020/12/21 02:01:02;;;;;;;41.75;28.35;;;6.00;99.90;;;;;;5028042;28;20362;-68
2020/12/21 02:03:28;;;;;;;37.92;25.10;;;6.00;99.90;;;;;;5034176;28;20063;-73
2020/12/21 02:05:55;;;;;;;46.60;27.52;;;6.00;99.90;;;;;;5027542;28;20127;-71
2020/12/21 02:08:21;;;;;;;54.08;29.67;;;6.00;99.90;;;;;;5029694;28;20041;-77
2020/12/21 02:10:48;;;;;;;45.83;28.95;;;6.00;99.90;;;;;;5030800;28;20733;-75
2020/12/21 02:13:14;;;;;;;51.33;29.50;;;6.00;99.90;;;;;;5029261;28;20488;-67
2020/12/21 02:15:41;;;;;;;69.45;33.60;;;6.00;99.90;;;;;;5033750;28;20160;-71
2020/12/21 02:18:07;;;;;;;41.47;26.48;;;6.00;99.90;;;;;;5037379;28;20065;-67
2020/12/21 02:20:34;;;;;;;46.53;26.55;;;6.00;99.90;;;;;;5031585;28;20075;-69
2020/12/21 02:23:00;;;;;;;49.08;29.65;;;5.90;99.90;;;;;;5034606;28;20686;-72
2020/12/21 02:25:28;;;;;;;48.42;31.58;;;5.90;99.90;;;;;;5036090;28;20041;-73
2020/12/21 02:27:55;;;;;;;52.22;27.63;;;5.90;99.90;;;;;;5033474;28;20440;-69
2020/12/21 02:30:21;;;;;;;48.08;26.92;;;5.90;99.90;;;;;;5038898;28;20409;-70
2020/12/21 02:32:47;;;;;;;46.55;27.95;;;5.90;99.90;;;;;;5024934;28;20084;-68
2020/12/21 02:35:14;;;;;;;49.88;30.88;;;5.90;99.90;;;;;;5035201;28;20104;-71
2020/12/21 02:37:41;;;;;;;48.45;30.67;;;5.80;99.90;;;;;;5031397;28;20075;-72
2020/12/21 02:40:08;;;;;;;45.85;28.00;;;5.80;99.90;;;;;;5034242;28;20204;-79
2020/12/21 02:42:34;;;;;;;54.20;31.65;;;5.80;99.90;;;;;;5031612;28;20068;-72
2020/12/21 02:45:01;;;;;;;46.15;30.38;;;5.80;99.90;;;;;;5029051;28;20060;-74
2020/12/21 02:47:28;;;;;;;51.72;27.98;;;5.80;99.90;;;;;;5036074;28;20044;-72
2020/12/21 02:49:55;;;;;;;52.35;30.80;;;5.80;99.90;;;;;;5035777;28;20152;-73
2020/12/21 02:52:21;;;;;;;51.97;30.55;;;5.80;99.90;;;;;;5028086;28;20049;-70
2020/12/21 02:54:48;;;;;;;51.72;29.88;;;5.70;99.90;;;;;;5029792;28;20088;-78
2020/12/21 02:57:15;;;;;;;50.80;30.58;;;5.80;99.90;;;;;;5026326;28;20057;-69
2020/12/21 02:59:41;;;;;;;51.40;29.58;;;5.70;99.90;;;;;;5028176;28;20130;-69
2020/12/21 03:02:08;;;;;;;51.78;31.13;;;5.70;99.90;;;;;;5036202;28;20548;-72
2020/12/21 03:04:35;;;;;;;49.90;28.42;;;5.70;99.90;;;;;;5031292;28;20037;-70
2020/12/21 03:07:02;;;;;;;51.00;30.10;;;5.70;99.90;;;;;;5035962;28;20099;-73
2020/12/21 03:09:29;;;;;;;49.28;30.63;;;5.70;99.90;;;;;;5034441;28;20357;-72
2020/12/21 03:11:55;;;;;;;53.08;30.60;;;5.70;99.90;;;;;;5032312;28;20045;-69
2020/12/21 03:14:22;;;;;;;50.35;30.83;;;5.70;99.90;;;;;;5030624;28;20041;-68
2020/12/21 03:16:48;;;;;;;55.58;30.10;;;5.70;99.90;;;;;;5025515;28;20046;-77
2020/12/21 03:19:14;;;;;;;51.22;31.90;;;5.70;99.90;;;;;;5031204;28;20536;-68
2020/12/21 03:21:41;;;;;;;55.92;31.67;;;5.60;99.90;;;;;;5029943;28;20382;-71
2020/12/21 03:24:08;;;;;;;49.10;31.48;;;5.60;99.90;;;;;;5027233;28;20472;-68
2020/12/21 03:26:34;;;;;;;52.88;31.13;;;5.60;99.90;;;;;;5028061;28;20085;-71
2020/12/21 03:29:01;;;;;;;57.45;33.22;;;5.60;99.90;;;;;;5021719;28;20144;-72
2020/12/21 03:31:28;;;;;;;62.38;31.88;;;5.60;99.90;;;;;;5031937;28;20052;-72
2020/12/21 03:33:55;;;;;;;53.05;30.85;;;5.60;99.90;;;;;;5028057;28;20064;-69
2020/12/21 03:36:21;;;;;;;56.50;34.15;;;5.60;99.90;;;;;;5025463;28;20053;-72
2020/12/21 03:38:48;;;;;;;53.72;34.15;;;5.60;99.90;;;;;;5033121;28;20644;-73
2020/12/21 03:41:14;;;;;;;58.55;34.75;;;5.60;99.90;;;;;;5025745;28;20111;-71
2020/12/21 03:43:41;;;;;;;52.95;31.75;;;5.60;99.90;;;;;;5031136;28;20047;-71
2020/12/21 03:46:08;;;;;;;53.28;34.05;;;5.60;99.90;;;;;;5032928;28;20553;-69
2020/12/21 03:48:34;;;;;;;46.67;29.40;;;5.50;99.90;;;;;;5032153;28;20037;-72
2020/12/21 03:51:01;;;;;;;55.13;33.42;;;5.50;99.90;;;;;;5033781;28;20047;-75
2020/12/21 03:53:28;;;;;;;61.05;30.65;;;5.50;99.90;;;;;;5027460;28;20571;-75
2020/12/21 03:55:54;;;;;;;54.25;31.60;;;5.50;99.90;;;;;;5031715;28;20514;-69
2020/12/21 03:58:21;;;;;;;55.53;31.58;;;5.50;99.90;;;;;;5033093;28;20128;-71
2020/12/21 04:00:47;;;;;;;55.58;31.15;;;5.50;99.90;;;;;;5030625;28;20489;-67
2020/12/21 04:03:14;;;;;;;53.92;30.58;;;5.50;99.90;;;;;;5034782;28;20515;-71
2020/12/21 04:05:47;;;;;;;57.15;31.38;;;5.50;99.90;;;;;;5037536;28;20056;-71
2020/12/21 04:08:13;;;;;;;51.20;31.25;;;5.50;99.90;;;;;;5031233;28;20046;-70
2020/12/21 04:10:43;;;;;;;59.28;35.00;;;5.50;99.90;;;;;;5036165;28;20352;-72
2020/12/21 04:13:10;;;;;;;51.75;31.98;;;5.50;99.90;;;;;;5025999;28;20397;-76
2020/12/21 04:15:36;;;;;;;51.03;30.40;;;5.50;99.90;;;;;;5032843;28;20049;-70
2020/12/21 04:18:04;;;;;;;45.85;29.52;;;5.50;99.90;;;;;;5030215;28;20053;-70
2020/12/21 04:20:32;;;;;;;51.55;29.95;;;5.50;99.90;;;;;;5027004;28;20053;-74
2020/12/21 04:22:59;;;;;;;46.22;27.48;;;5.50;99.90;;;;;;5028642;28;20739;-69
2020/12/21 04:25:25;;;;;;;46.22;29.85;;;5.50;99.90;;;;;;5026888;28;20042;-72
2020/12/21 04:27:52;;;;;;;46.92;29.25;;;5.50;99.90;;;;;;5023896;28;20030;-70
2020/12/21 04:30:18;;;;;;;47.83;27.60;;;5.50;99.90;;;;;;5028610;28;20560;-72
2020/12/21 04:32:44;;;;;;;51.30;29.65;;;5.40;99.90;;;;;;5023997;28;20041;-69
2020/12/21 04:35:11;;;;;;;41.53;25.95;;;5.40;99.90;;;;;;5027378;28;20904;-72
2020/12/21 04:37:37;;;;;;;40.72;27.08;;;5.40;99.90;;;;;;5029467;28;20071;-67
2020/12/21 04:40:04;;;;;;;42.75;25.15;;;5.40;99.90;;;;;;5034012;28;20072;-69
2020/12/21 04:42:30;;;;;;;40.97;26.80;;;5.40;99.90;;;;;;5033913;28;20106;-68
2020/12/21 04:44:57;;;;;;;35.78;24.92;;;5.40;99.90;;;;;;5025607;28;21400;-68
2020/12/21 04:47:25;;;;;;;42.97;26.85;;;5.40;99.90;;;;;;5011904;28;20064;-70
2020/12/21 04:49:55;;;;;;;41.88;26.45;;;5.50;99.90;;;;;;5014942;28;20050;-70
2020/12/21 04:52:29;;;;;;;39.45;24.67;;;5.40;99.90;;;;;;5005820;28;20484;-71
2020/12/21 04:54:56;;;;;;;41.10;24.00;;;5.40;99.90;;;;;;5010299;28;20049;-76
2020/12/21 04:57:22;;;;;;;38.03;24.00;;;5.40;99.90;;;;;;5011678;28;20045;-71
2020/12/21 04:59:49;;;;;;;36.83;26.73;;;5.40;99.90;;;;;;5011352;28;20073;-71
2020/12/21 05:02:15;;;;;;;37.22;24.85;;;5.40;99.90;;;;;;5006822;28;20049;-70
2020/12/21 05:04:52;;;;;;;35.05;23.27;;;5.50;99.90;;;;;;5005948;28;20063;-71
2020/12/21 05:07:30;;;;;;;38.15;24.45;;;5.40;99.90;;;;;;5010275;28;20076;-72
2020/12/21 05:10:08;;;;;;;30.60;21.30;;;5.40;99.90;;;;;;5005607;28;20057;-72
2020/12/21 05:12:35;;;;;;;41.15;26.05;;;5.50;99.90;;;;;;5008368;28;20592;-69
2020/12/21 05:15:16;;;;;;;33.08;23.02;;;5.50;99.90;;;;;;5005635;28;20124;-67
2020/12/21 05:17:43;;;;;;;33.72;24.40;;;5.40;99.90;;;;;;5012323;28;20076;-67
2020/12/21 05:20:28;;;;;;;34.45;22.05;;;5.50;99.90;;;;;;5014683;28;20051;-69
2020/12/21 05:22:54;;;;;;;40.97;24.63;;;5.40;99.90;;;;;;5005458;28;20041;-68
2020/12/21 05:25:21;;;;;;;33.80;22.20;;;5.40;99.90;;;;;;5007658;28;20052;-70
2020/12/21 05:27:47;;;;;;;36.97;24.98;;;5.50;99.90;;;;;;5008363;28;20918;-69
2020/12/21 05:30:14;;;;;;;36.47;23.83;;;5.50;99.90;;;;;;5004858;28;21155;-72
2020/12/21 05:32:41;;;;;;;31.92;23.67;;;5.50;99.90;;;;;;5009163;28;20061;-71
2020/12/21 05:35:10;;;;;;;37.53;22.55;;;5.50;99.90;;;;;;5008358;28;20431;-75
2020/12/21 05:37:39;;;;;;;29.73;20.65;;;5.50;99.90;;;;;;5012433;28;20053;-71
2020/12/21 05:40:08;;;;;;;28.42;20.17;;;5.50;99.90;;;;;;5004587;28;20041;-71
2020/12/21 05:42:36;;;;;;;27.90;19.83;;;5.50;99.90;;;;;;5014101;28;20107;-68
2020/12/21 05:45:06;;;;;;;32.25;21.95;;;5.50;99.90;;;;;;5008384;28;20038;-68
2020/12/21 05:47:33;;;;;;;29.92;20.55;;;5.50;99.90;;;;;;5003948;28;20068;-71
2020/12/21 05:50:05;;;;;;;29.80;19.77;;;5.50;99.90;;;;;;5011360;28;20107;-72
2020/12/21 05:52:36;;;;;;;26.60;17.88;;;5.50;99.90;;;;;;5005760;28;20053;-71
2020/12/21 05:55:13;;;;;;;24.88;17.98;;;5.50;99.90;;;;;;5005512;28;20053;-70
2020/12/21 05:57:41;;;;;;;27.50;19.17;;;5.50;99.90;;;;;;5014808;28;20924;-71
2020/12/21 06:00:11;;;;;;;29.50;18.38;;;5.50;99.90;;;;;;5005387;28;20483;-68
2020/12/21 06:02:38;;;;;;;24.65;17.73;;;5.50;99.90;;;;;;5013699;28;20038;-70
2020/12/21 06:05:09;;;;;;;23.73;17.65;;;5.50;99.90;;;;;;5007574;28;20041;-69
2020/12/21 06:07:37;;;;;;;23.98;16.05;;;5.50;99.90;;;;;;5007658;28;20087;-69
2020/12/21 06:10:07;;;;;;;22.55;16.98;;;5.50;99.90;;;;;;5004495;28;20056;-74
2020/12/21 06:12:52;;;;;;;25.05;18.58;;;5.50;99.90;;;;;;5010001;28;20058;-68
2020/12/21 06:15:38;;;;;;;25.63;17.27;;;5.50;99.90;;;;;;5008748;28;20429;-70
2020/12/21 06:18:08;;;;;;;26.80;15.55;;;5.50;99.90;;;;;;5009797;28;20045;-69
2020/12/21 06:20:42;;;;;;;25.27;15.88;;;5.50;99.90;;;;;;5007669;28;20077;-72
2020/12/21 06:23:09;;;;;;;23.58;15.18;;;5.50;99.90;;;;;;5003424;28;20038;-69
2020/12/21 06:25:36;;;;;;;25.60;15.48;;;5.60;99.90;;;;;;5016862;28;20835;-72
2020/12/21 06:28:08;;;;;;;23.75;15.95;;;5.60;99.90;;;;;;5007102;28;20041;-68
2020/12/21 06:30:35;;;;;;;22.88;17.92;;;5.60;99.90;;;;;;5006797;28;20068;-67
2020/12/21 06:33:03;;;;;;;22.25;16.33;;;5.60;99.90;;;;;;5008087;28;20076;-76
2020/12/21 06:35:41;;;;;;;22.67;16.05;;;5.60;99.90;;;;;;5008964;28;20080;-69
2020/12/21 06:38:08;;;;;;;24.25;16.70;;;5.60;99.90;;;;;;5002891;28;20771;-73
2020/12/21 06:40:35;;;;;;;39.58;22.75;;;5.60;99.90;;;;;;5007012;28;20085;-69
2020/12/21 06:43:14;;;;;;;28.73;18.50;;;5.60;99.90;;;;;;5009869;28;20049;-69
2020/12/21 06:45:42;;;;;;;22.70;16.75;;;5.60;99.90;;;;;;5017308;28;20076;-75
2020/12/21 06:48:08;;;;;;;22.55;15.40;;;5.70;99.90;;;;;;5007252;28;20702;-68
2020/12/21 06:50:36;;;;;;;20.27;14.40;;;5.70;99.90;;;;;;5008756;28;20576;-71
2020/12/21 06:53:07;;;;;;;22.30;15.20;;;5.70;99.90;;;;;;5007900;28;20042;-71
2020/12/21 06:55:35;;;;;;;42.90;16.15;;;5.70;99.90;;;;;;5008845;28;20050;-71
2020/12/21 06:58:02;;;;;;;23.58;16.42;;;5.70;99.90;;;;;;5007739;28;20053;-68
2020/12/21 07:00:33;;;;;;;22.60;16.33;;;5.80;99.90;;;;;;5013924;28;20517;-68
2020/12/21 07:02:59;;;;;;;22.35;15.48;;;5.80;99.90;;;;;;5009761;28;20588;-72
2020/12/21 07:05:26;;;;;;;24.05;14.93;;;5.80;99.90;;;;;;5017526;28;20579;-71
2020/12/21 07:07:59;;;;;;;19.23;14.10;;;5.80;99.90;;;;;;5009708;28;20042;-68
2020/12/21 07:10:27;;;;;;;19.23;14.52;;;5.80;99.90;;;;;;5007884;28;20116;-73
2020/12/21 07:12:54;;;;;;;16.75;11.77;;;5.80;99.90;;;;;;5014504;28;20155;-70
2020/12/21 07:15:21;;;;;;;13.85;10.52;;;5.90;99.90;;;;;;5009897;28;20065;-69
2020/12/21 07:17:48;;;;;;;14.35;11.60;;;5.90;99.90;;;;;;5017448;28;20874;-68
2020/12/21 07:20:14;;;;;;;13.25;9.23;;;5.90;99.90;;;;;;5007319;28;20092;-71
2020/12/21 07:22:42;;;;;;;14.77;10.18;;;5.90;99.90;;;;;;5012662;28;20129;-73
2020/12/21 07:25:11;;;;;;;11.52;9.90;;;5.90;99.90;;;;;;5013263;28;20048;-75
2020/12/21 07:27:38;;;;;;;11.48;9.65;;;6.00;99.90;;;;;;5013152;28;20034;-68
2020/12/21 07:30:10;;;;;;;14.73;9.40;;;5.90;99.90;;;;;;5007973;28;20674;-75
2020/12/21 07:32:37;;;;;;;11.90;8.85;;;6.00;99.90;;;;;;5014773;28;20136;-68
2020/12/21 07:35:05;;;;;;;11.10;7.85;;;5.90;99.90;;;;;;5009565;28;20049;-69
2020/12/21 07:37:32;;;;;;;7.95;7.13;;;6.00;99.90;;;;;;5014918;28;20059;-71
2020/12/21 07:39:59;;;;;;;16.85;9.13;;;6.00;99.90;;;;;;5010019;28;20257;-69
2020/12/21 07:42:29;;;;;;;9.63;7.68;;;6.00;99.90;;;;;;5010665;28;20049;-69
2020/12/21 07:44:58;;;;;;;8.93;7.45;;;6.00;99.90;;;;;;5010313;28;20062;-73
2020/12/21 07:47:30;;;;;;;9.85;8.23;;;6.00;99.90;;;;;;5010355;28;20106;-68
2020/12/21 07:49:58;;;;;;;11.55;7.00;;;6.00;99.90;;;;;;5015169;28;20671;-71
2020/12/21 07:52:25;;;;;;;11.57;7.28;;;6.00;99.90;;;;;;5014002;28;20056;-71
2020/12/21 07:54:52;;;;;;;8.77;6.95;;;6.10;99.90;;;;;;5008906;28;20046;-70
2020/12/21 07:57:18;;;;;;;13.30;9.38;;;6.00;99.90;;;;;;5012684;28;20045;-67
2020/12/21 07:59:58;;;;;;;12.80;8.43;;;6.10;99.90;;;;;;5006435;28;20081;-69
2020/12/21 08:02:26;;;;;;;7.00;6.35;;;6.10;99.90;;;;;;5004987;28;20526;-68
2020/12/21 08:04:53;;;;;;;10.38;6.78;;;6.10;99.90;;;;;;5015930;28;20038;-69
2020/12/21 08:07:26;;;;;;;8.23;7.43;;;6.10;99.90;;;;;;5006518;28;20724;-69
2020/12/21 08:09:53;;;;;;;9.32;7.80;;;6.10;99.90;;;;;;5012280;28;20049;-70
2020/12/21 08:12:19;;;;;;;10.48;7.18;;;6.10;99.90;;;;;;5012218;28;20069;-69
2020/12/21 08:14:46;;;;;;;10.27;8.30;;;6.10;99.90;;;;;;5009562;28;20697;-70
2020/12/21 08:17:19;;;;;;;9.00;7.35;;;6.20;99.90;;;;;;5009405;28;20037;-70
2020/12/21 08:19:48;;;;;;;9.30;7.97;;;6.20;99.90;;;;;;5007090;28;20734;-73
2020/12/21 08:22:19;;;;;;;11.05;8.00;;;6.20;99.90;;;;;;5008602;28;20080;-70
2020/12/21 08:24:46;;;;;;;8.82;6.88;;;6.20;99.90;;;;;;5006880;28;20053;-68
2020/12/21 08:27:19;;;;;;;8.35;7.63;;;6.20;99.90;;;;;;5010546;28;20054;-71
2020/12/21 08:29:47;;;;;;;7.90;7.07;;;6.30;99.90;;;;;;5011361;28;20498;-71
2020/12/21 08:32:13;;;;;;;9.98;6.93;;;6.30;99.90;;;;;;5013019;28;20033;-69
2020/12/21 08:34:40;;;;;;;9.82;7.25;;;6.30;99.90;;;;;;5009360;28;20058;-70
2020/12/21 08:37:06;;;;;;;10.60;7.65;;;6.30;99.90;;;;;;5011942;28;20134;-73
2020/12/21 08:39:32;;;;;;;10.63;7.47;;;6.30;99.90;;;;;;5009269;28;20624;-68
2020/12/21 08:42:00;;;;;;;10.30;8.65;;;6.30;99.90;;;;;;5011005;28;20083;-72
2020/12/21 08:44:28;;;;;;;11.10;7.80;;;6.30;99.90;;;;;;5007201;28;20056;-71
2020/12/21 08:46:59;;;;;;;12.13;8.45;;;6.30;99.90;;;;;;5009397;28;20513;-74
2020/12/21 08:49:27;;;;;;;9.27;7.88;;;6.30;99.90;;;;;;5014594;28;20453;-70
2020/12/21 08:52:04;;;;;;;10.35;9.27;;;6.30;99.90;;;;;;5015575;28;20124;-72
2020/12/21 08:54:30;;;;;;;10.10;8.10;;;6.40;99.90;;;;;;5010602;28;20463;-70
2020/12/21 08:56:58;;;;;;;14.32;9.52;;;6.30;99.90;;;;;;5011980;28;20053;-70
2020/12/21 08:59:25;;;;;;;18.23;12.02;;;6.40;99.90;;;;;;5008343;28;20111;-68
2020/12/21 09:01:52;;;;;;;10.23;9.15;;;6.40;99.90;;;;;;5007172;28;20050;-70
2020/12/21 09:04:18;;;;;;;9.27;8.32;;;6.40;99.90;;;;;;5008021;28;20367;-67
2020/12/21 09:06:44;;;;;;;12.38;8.73;;;6.40;99.90;;;;;;5005249;28;20053;-68
2020/12/21 09:09:11;;;;;;;10.13;8.95;;;6.40;99.90;;;;;;5017885;28;20055;-73
2020/12/21 09:11:38;;;;;;;10.23;7.97;;;6.40;99.90;;;;;;5017863;28;20037;-68
2020/12/21 09:14:04;;;;;;;8.85;7.78;;;6.40;99.90;;;;;;5009150;28;20057;-75
2020/12/21 09:16:31;;;;;;;10.00;8.80;;;6.40;99.90;;;;;;5016496;28;20042;-71
2020/12/21 09:18:59;;;;;;;10.95;8.63;;;6.40;99.90;;;;;;5004231;28;20144;-68
2020/12/21 09:21:27;;;;;;;12.75;9.23;;;6.40;99.90;;;;;;5007103;28;20052;-68
2020/12/21 09:23:56;;;;;;;12.50;9.50;;;6.40;99.90;;;;;;5009642;28;20045;-68
2020/12/21 09:26:23;;;;;;;17.63;9.77;;;6.40;99.90;;;;;;5004011;28;20357;-69
2020/12/21 09:28:51;;;;;;;15.68;8.70;;;6.50;99.90;;;;;;5011264;28;20605;-71
2020/12/21 09:31:19;;;;;;;10.35;9.15;;;6.50;99.90;;;;;;5028985;28;20123;-69
2020/12/21 09:33:47;;;;;;;15.23;8.07;;;6.50;99.90;;;;;;5030317;28;20053;-71
2020/12/21 09:36:14;;;;;;;9.30;8.18;;;6.50;99.90;;;;;;5025043;28;20045;-71
2020/12/21 09:38:43;;;;;;;12.48;7.97;;;6.50;99.90;;;;;;5024621;28;20049;-67
2020/12/21 09:41:15;;;;;;;15.40;8.90;;;6.50;99.90;;;;;;5025488;28;20441;-71
2020/12/21 09:43:43;;;;;;;14.23;7.90;;;6.50;99.90;;;;;;5024171;28;20059;-73
2020/12/21 09:46:15;;;;;;;9.77;7.53;;;6.50;99.90;;;;;;5023438;28;20041;-70
2020/12/21 09:48:41;;;;;;;8.90;7.95;;;6.50;99.90;;;;;;5033050;28;20052;-71
2020/12/21 09:51:08;;;;;;;14.77;8.35;;;6.50;99.90;;;;;;5027160;28;20730;-68
2020/12/21 09:53:34;;;;;;;9.43;8.35;;;6.50;99.90;;;;;;5028821;28;20055;-71
2020/12/21 09:56:00;;;;;;;11.20;8.00;;;6.50;99.90;;;;;;5032895;28;20136;-71
2020/12/21 09:58:29;;;;;;;14.68;8.48;;;6.50;99.90;;;;;;5028028;28;20049;-71
2020/12/21 10:00:56;;;;;;;9.70;8.68;;;6.50;99.90;;;;;;5033560;28;20041;-69
2020/12/21 10:03:22;;;;;;;12.75;10.65;;;6.50;99.90;;;;;;5025769;28;20040;-68
2020/12/21 10:05:48;;;;;;;17.30;9.75;;;6.50;99.90;;;;;;5030160;28;20073;-71
2020/12/21 10:08:15;;;;;;;10.98;9.35;;;6.60;99.90;;;;;;5031138;28;20041;-71
2020/12/21 10:10:41;;;;;;;13.18;8.80;;;6.60;99.90;;;;;;5027181;28;20149;-71
2020/12/21 10:13:08;;;;;;;12.80;9.73;;;6.60;99.90;;;;;;5030406;28;20053;-70
2020/12/21 10:15:35;;;;;;;10.45;8.57;;;6.60;99.90;;;;;;5028459;28;20060;-69
2020/12/21 10:18:01;;;;;;;10.15;8.70;;;6.60;99.90;;;;;;5025847;28;20554;-69
2020/12/21 10:20:27;;;;;;;11.02;8.95;;;6.60;99.90;;;;;;5029126;28;20030;-67
2020/12/21 10:22:54;;;;;;;11.27;9.15;;;6.60;99.90;;;;;;5027573;28;20145;-70
2020/12/21 10:25:20;;;;;;;20.27;10.07;;;6.70;99.90;;;;;;5036069;28;20037;-73
2020/12/21 10:27:47;;;;;;;9.95;8.23;;;6.60;99.90;;;;;;5030191;28;20045;-72
2020/12/21 10:30:16;;;;;;;10.80;8.25;;;6.70;99.90;;;;;;5027306;28;20499;-69
2020/12/21 10:32:43;;;;;;;12.55;9.52;;;6.70;99.90;;;;;;5034790;28;20060;-67
2020/12/21 10:35:12;;;;;;;12.82;9.65;;;6.70;99.90;;;;;;5028689;28;20057;-70
2020/12/21 10:37:38;;;;;;;16.25;10.43;;;6.60;99.90;;;;;;5025604;28;20760;-71
2020/12/21 10:40:06;;;;;;;12.60;11.27;;;6.60;99.90;;;;;;5033296;28;20137;-67
2020/12/21 10:42:32;;;;;;;13.35;9.50;;;6.60;99.90;;;;;;5030813;28;20524;-68
2020/12/21 10:44:59;;;;;;;15.23;9.88;;;6.60;99.90;;;;;;5027314;28;20464;-71
2020/12/21 10:47:25;;;;;;;16.33;10.98;;;6.60;99.90;;;;;;5029919;28;20453;-68
2020/12/21 10:49:52;;;;;;;16.00;12.52;;;6.60;99.90;;;;;;5029641;28;20041;-70
2020/12/21 10:52:18;;;;;;;20.88;12.77;;;6.60;99.90;;;;;;5032591;28;20465;-70
2020/12/21 10:54:44;;;;;;;17.85;11.35;;;6.70;99.90;;;;;;5032977;28;20045;-71
2020/12/21 10:57:11;;;;;;;21.88;12.90;;;6.60;99.90;;;;;;5029647;28;20045;-69
2020/12/21 10:59:38;;;;;;;17.05;11.85;;;6.60;99.90;;;;;;5036638;28;20053;-77
2020/12/21 11:02:05;;;;;;;18.02;12.63;;;6.70;99.90;;;;;;5030508;28;20042;-69
2020/12/21 11:04:31;;;;;;;18.38;12.70;;;6.60;99.90;;;;;;5034155;28;20813;-68
2020/12/21 11:06:58;;;;;;;20.27;14.02;;;6.70;99.90;;;;;;5027319;28;20041;-72
2020/12/21 11:09:24;;;;;;;15.93;12.07;;;6.70;99.90;;;;;;5028971;28;20061;-67
2020/12/21 11:11:50;;;;;;;21.00;15.18;;;6.70;99.90;;;;;;5033884;28;20052;-68
2020/12/21 11:14:17;;;;;;;13.48;11.93;;;6.70;99.90;;;;;;5029254;28;20053;-71
2020/12/21 11:16:52;;;;;;;17.45;12.48;;;6.70;99.90;;;;;;5028227;28;20054;-72
2020/12/21 11:19:18;;;;;;;20.48;13.50;;;6.70;99.90;;;;;;5038432;28;20068;-68
2020/12/21 11:21:45;;;;;;;22.98;14.02;;;6.70;99.90;;;;;;5032814;28;20396;-67
2020/12/21 11:24:11;;;;;;;19.33;11.40;;;6.80;99.90;;;;;;5035662;28;20151;-69
2020/12/21 11:26:38;;;;;;;22.95;12.25;;;6.80;99.90;;;;;;5033508;28;20128;-68
2020/12/21 11:29:05;;;;;;;20.70;13.60;;;6.80;99.90;;;;;;5028259;28;20135;-70
2020/12/21 11:31:36;;;;;;;20.95;13.70;;;6.80;99.90;;;;;;5026432;28;20288;-69
2020/12/21 11:34:05;;;;;;;;;;;6.80;99.90;;;;;;5031962;28;20491;-68
2020/12/21 11:36:31;;;;;;;22.88;13.30;;;6.80;99.90;;;;;;5029064;28;19925;-69
2020/12/21 11:38:58;;;;;;;22.65;14.40;;;6.80;99.90;;;;;;5022816;28;20295;-67
2020/12/21 11:41:30;;;;;;;21.55;13.68;;;6.80;99.90;;;;;;5029226;28;20131;-69
2020/12/21 11:43:57;;;;;;;18.45;13.48;;;6.90;99.90;;;;;;5035412;28;20063;-70
2020/12/21 11:46:35;;;;;;;18.48;13.18;;;6.90;99.90;;;;;;5026856;28;20073;-70
2020/12/21 11:49:03;;;;;;;20.17;14.25;;;6.90;99.90;;;;;;5025042;28;20136;-70
2020/12/21 11:51:29;;;;;;;17.55;15.30;;;6.90;99.90;;;;;;5028068;28;20522;-70
2020/12/21 11:53:56;;;;;;;27.80;15.45;;;6.90;99.90;;;;;;5023202;28;20049;-69
2020/12/21 11:56:23;;;;;;;19.63;14.68;;;7.00;99.90;;;;;;5030979;28;20049;-72
2020/12/21 11:58:50;;;;;;;18.10;12.75;;;7.00;99.90;;;;;;5034241;28;20060;-71
2020/12/21 12:01:17;;;;;;;21.15;12.40;;;7.00;99.90;;;;;;5030545;28;20447;-73
2020/12/21 12:03:44;;;;;;;25.60;13.93;;;7.00;99.90;;;;;;5027952;28;20076;-70
2020/12/21 12:06:11;;;;;;;22.08;13.98;;;7.00;99.90;;;;;;5027416;28;20046;-71
2020/12/21 12:08:37;;;;;;;27.45;13.90;;;6.90;99.90;;;;;;5028941;28;20033;-73
2020/12/21 12:11:06;;;;;;;18.30;12.32;;;7.00;99.90;;;;;;5028066;28;20451;-69
2020/12/21 12:13:38;;;;;;;17.88;11.90;;;7.00;99.90;;;;;;5032118;28;20144;-68
2020/12/21 12:16:04;;;;;;;21.23;11.20;;;7.00;99.90;;;;;;5029038;28;20676;-70
2020/12/21 12:18:31;;;;;;;22.92;13.98;;;7.00;99.90;;;;;;5029108;28;20068;-69
2020/12/21 12:20:57;;;;;;;12.35;9.70;;;7.00;99.90;;;;;;5030074;28;20069;-72
2020/12/21 12:23:24;;;;;;;20.38;12.02;;;7.00;99.90;;;;;;5024633;28;20808;-69
2020/12/21 12:25:50;;;;;;;19.75;11.27;;;7.00;99.90;;;;;;5029883;28;20041;-70
2020/12/21 12:28:18;;;;;;;21.73;11.68;;;7.00;99.90;;;;;;5025020;28;20061;-70
2020/12/21 12:30:44;;;;;;;30.55;11.32;;;7.00;99.90;;;;;;5025456;28;20057;-70
2020/12/21 12:33:10;;;;;;;17.60;10.40;;;7.00;99.90;;;;;;5030982;28;20137;-71
2020/12/21 12:35:37;;;;;;;17.08;10.93;;;7.00;99.90;;;;;;5028430;28;20245;-70
2020/12/21 12:38:04;;;;;;;15.20;10.02;;;7.00;99.90;;;;;;5029382;28;20075;-71
2020/12/21 12:40:31;;;;;;;17.42;11.82;;;6.90;99.90;;;;;;5026798;28;20046;-70
2020/12/21 12:42:57;;;;;;;18.10;11.93;;;6.90;99.90;;;;;;5023856;28;20045;-70